Time;durP1;ratioP1;P1;durP2;ratioP2;P2;SDS_P1;SDS_P2;PMS_P1;PMS_P2;Temp;Humidity;BMP_temperature;BMP_pressure;BME280_temperature;BME280_humidity;BME280_pressure;Samples;Min_cycle;Max_cycle;Signal;HPM_P1;HPM_P2
2023/01/28 07:10:48;;;;;;;;;;;27.60;78.70;;;;;;6293839;22;19922;-72
2023/01/28 07:13:14;;;;;;;;;;;27.60;79.00;;;;;;6302309;22;19923;-74
2023/01/28 07:15:41;;;;;;;;;;;27.50;79.30;;;;;;6302730;22;19918;-70
2023/01/28 07:18:08;;;;;;;;;;;27.50;79.30;;;;;;6302444;22;19911;-72
2023/01/28 07:20:34;;;;;;;;;;;27.50;79.50;;;;;;6303200;22;20318;-70
2023/01/28 07:23:01;;;;;;;;;;;27.40;79.30;;;;;;6302162;22;19903;-70
2023/01/28 07:25:28;;;;;;;;;;;27.40;79.60;;;;;;6302505;22;19911;-73
2023/01/28 07:27:54;;;;;;;;;;;27.40;79.80;;;;;;6302854;22;20356;-69
2023/01/28 07:30:23;;;;;;;;;;;27.40;79.90;;;;;;6302180;22;20298;-69
2023/01/28 07:32:56;;;;;;;;;;;27.40;80.00;;;;;;6301680;22;19972;-69
2023/01/28 07:35:23;;;;;;;;;;;27.30;80.30;;;;;;6302439;22;20321;-69
2023/01/28 07:37:56;;;;;;;;;;;27.30;80.50;;;;;;6275222;22;19907;-71
2023/01/28 07:40:23;;;;;;;;;;;27.30;81.10;;;;;;6301998;22;19914;-70
2023/01/28 07:42:50;;;;;;;;;;;27.30;81.20;;;;;;6302844;22;19911;-68
2023/01/28 07:45:17;;;;;;;;;;;27.20;81.40;;;;;;6300123;22;19911;-71
2023/01/28 07:47:43;;;;;;;;;;;27.20;81.40;;;;;;6302722;22;19913;-71
2023/01/28 07:50:10;;;;;;;;;;;27.20;81.20;;;;;;6302153;22;19980;-71
2023/01/28 07:52:43;;;;;;;;;;;27.10;81.50;;;;;;6301158;22;20018;-71
2023/01/28 07:55:11;;;;;;;;;;;27.10;81.90;;;;;;6302419;22;19907;-71
2023/01/28 07:57:38;;;;;;;;;;;27.10;82.00;;;;;;6301954;22;19980;-71
2023/01/28 08:00:05;;;;;;;;;;;27.10;81.80;;;;;;6277837;22;19903;-71
2023/01/28 08:02:31;;;;;;;;;;;27.00;82.00;;;;;;6305595;22;20320;-72
2023/01/28 08:05:00;;;;;;;;;;;27.00;81.90;;;;;;6305247;22;19949;-71
2023/01/28 08:07:27;;;;;;;;;;;27.10;81.80;;;;;;6304681;22;19930;-71
2023/01/28 08:09:53;;;;;;;;;;;27.00;81.80;;;;;;6302411;22;19914;-72
2023/01/28 08:12:20;;;;;;;;;;;27.00;81.80;;;;;;6298590;22;19942;-70
2023/01/28 08:14:47;;;;;;;;;;;27.00;81.80;;;;;;6302733;22;19914;-68
2023/01/28 08:17:13;;;;;;;;;;;27.00;81.80;;;;;;6302800;22;19910;-70
2023/01/28 08:19:40;;;;;;;;;;;27.00;81.70;;;;;;6301411;22;19903;-70
2023/01/28 08:22:07;;;;;;;;;;;27.00;81.80;;;;;;6302070;22;20376;-69
2023/01/28 08:24:33;;;;;;;;;;;26.90;81.70;;;;;;6302463;22;19906;-69
2023/01/28 08:27:00;;;;;;;;;;;26.90;81.70;;;;;;6300129;22;19993;-70
2023/01/28 08:29:26;;;;;;;;;;;26.90;81.90;;;;;;6302108;22;19907;-70
2023/01/28 08:31:53;;;;;;;;;;;26.80;81.90;;;;;;6301813;22;19911;-71
2023/01/28 08:34:20;;;;;;;;;;;26.90;81.80;;;;;;6301276;22;19914;-72
2023/01/28 08:36:46;;;;;;;;;;;26.80;81.90;;;;;;6302394;22;19919;-70
2023/01/28 08:39:13;;;;;;;;;;;26.80;82.20;;;;;;6301141;22;19907;-70
2023/01/28 08:41:40;;;;;;;;;;;26.80;82.50;;;;;;6300867;22;20350;-70
2023/01/28 08:44:07;;;;;;;;;;;26.70;82.70;;;;;;6301929;22;20284;-69
2023/01/28 08:46:33;;;;;;;;;;;26.80;82.90;;;;;;6300924;22;19903;-68
2023/01/28 08:49:00;;;;;;;;;;;26.70;83.10;;;;;;6303356;22;19907;-69
2023/01/28 08:51:26;;;;;;;;;;;26.70;83.20;;;;;;6303335;22;19910;-70
2023/01/28 08:53:53;;;;;;;;;;;26.60;83.50;;;;;;6303824;22;19918;-70
2023/01/28 08:56:20;;;;;;;;;;;26.60;83.80;;;;;;6303802;22;20283;-70
2023/01/28 08:58:46;;;;;;;;;;;26.60;84.00;;;;;;6302700;22;19920;-69
2023/01/28 09:01:13;;;;;;;;;;;26.60;84.10;;;;;;6303503;22;19938;-70
2023/01/28 09:03:40;;;;;;;;;;;26.50;84.30;;;;;;6303442;22;19914;-69
2023/01/28 09:06:06;;;;;;;;;;;26.50;84.40;;;;;;6303713;22;19903;-69
2023/01/28 09:08:33;;;;;;;;;;;26.50;84.40;;;;;;6302948;22;19907;-70
2023/01/28 09:11:00;;;;;;;;;;;26.50;84.50;;;;;;6300446;22;19950;-70
2023/01/28 09:13:27;;;;;;;;;;;26.50;84.50;;;;;;6303364;22;19926;-70
2023/01/28 09:15:54;;;;;;;;;;;26.50;84.50;;;;;;6303096;22;19918;-70
2023/01/28 09:18:20;;;;;;;;;;;26.40;84.60;;;;;;6303760;22;19907;-68
2023/01/28 09:20:47;;;;;;;;;;;26.30;84.80;;;;;;6302860;22;19911;-68
2023/01/28 09:23:14;;;;;;;;;;;26.40;84.80;;;;;;6275811;22;19914;-71
2023/01/28 09:25:40;;;;;;;;;;;26.30;84.90;;;;;;6303944;22;19981;-67
2023/01/28 09:28:07;;;;;;;;;;;26.40;84.90;;;;;;6275868;22;19906;-69
2023/01/28 09:30:34;;;;;;;;;;;26.40;85.00;;;;;;6303662;22;19911;-69
2023/01/28 09:33:01;;;;;;;;;;;26.30;85.00;;;;;;6303633;22;20664;-70
2023/01/28 09:35:27;;;;;;;;;;;26.30;85.20;;;;;;6302893;22;20014;-71
2023/01/28 09:37:57;;;;;;;;;;;26.30;85.40;;;;;;6303819;22;19903;-71
2023/01/28 09:40:29;;;;;;;;;;;26.30;85.50;;;;;;6303076;22;19903;-72
2023/01/28 09:42:59;;;;;;;;;;;26.20;85.50;;;;;;6250419;22;19993;-69
2023/01/28 09:45:29;;;;;;;;;;;26.30;85.60;;;;;;6275939;22;19911;-70
2023/01/28 09:47:57;;;;;;;;;;;26.30;85.60;;;;;;6276746;22;19961;-69
2023/01/28 09:50:31;;;;;;;;;;;26.20;85.50;;;;;;6276202;22;19906;-70
2023/01/28 09:53:18;;;;;;;;;;;26.20;85.80;;;;;;6276642;22;19914;-69
2023/01/28 09:56:07;;;;;;;;;;;26.20;85.80;;;;;;6302882;22;20005;-70
2023/01/28 09:58:34;;;;;;;;;;;26.20;85.80;;;;;;6282613;22;19921;-69
2023/01/28 10:01:09;;;;;;;;;;;26.20;85.90;;;;;;6303741;22;19915;-70
2023/01/28 10:03:36;;;;;;;;;;;26.10;86.00;;;;;;6276061;22;20325;-69
2023/01/28 10:06:13;;;;;;;;;;;26.00;86.40;;;;;;6303459;22;19907;-69
2023/01/28 10:08:58;;;;;;;;;;;26.00;86.30;;;;;;6303580;22;19930;-71
2023/01/28 10:11:43;;;;;;;;;;;26.00;86.20;;;;;;6300692;22;19918;-71
2023/01/28 10:14:27;;;;;;;;;;;26.00;86.10;;;;;;6303196;22;19947;-71
2023/01/28 10:17:00;;;;;;;;;;;26.00;86.30;;;;;;6276610;22;19911;-72
2023/01/28 10:19:31;;;;;;;;;;;26.10;86.30;;;;;;6276981;22;19914;-72
2023/01/28 10:21:59;;;;;;;;;;;26.00;86.40;;;;;;6302934;22;20254;-72
2023/01/28 10:24:29;;;;;;;;;;;26.00;86.40;;;;;;6304122;22;20337;-72
2023/01/28 10:26:56;;;;;;;;;;;26.00;86.50;;;;;;6304510;22;19969;-73
2023/01/28 10:29:29;;;;;;;;;;;26.00;86.60;;;;;;6276182;22;20242;-72
2023/01/28 10:31:59;;;;;;;;;;;26.00;86.50;;;;;;6276565;22;19914;-72
2023/01/28 10:34:26;;;;;;;;;;;26.00;86.50;;;;;;6302980;22;20250;-72
2023/01/28 10:36:53;;;;;;;;;;;26.00;86.70;;;;;;6303026;22;20366;-72
2023/01/28 10:39:20;;;;;;;;;;;26.00;86.40;;;;;;6303527;22;19976;-72
2023/01/28 10:41:47;;;;;;;;;;;26.00;86.20;;;;;;6302922;22;19945;-71
2023/01/28 10:44:16;;;;;;;;;;;26.00;86.40;;;;;;6303252;22;19909;-73
2023/01/28 10:46:45;;;;;;;;;;;26.00;86.40;;;;;;6276146;22;20309;-71
2023/01/28 10:49:16;;;;;;;;;;;26.00;86.50;;;;;;6301945;22;20442;-71
2023/01/28 10:51:43;;;;;;;;;;;25.90;86.60;;;;;;6303170;22;19927;-71
2023/01/28 10:54:20;;;;;;;;;;;25.90;86.70;;;;;;6303592;22;19930;-70
2023/01/28 10:56:47;;;;;;;;;;;25.90;86.70;;;;;;6303134;22;19906;-71
2023/01/28 10:59:21;;;;;;;;;;;25.90;86.80;;;;;;6302811;22;19945;-71
2023/01/28 11:01:55;;;;;;;;;;;25.90;86.90;;;;;;6303662;22;19919;-70
2023/01/28 11:04:25;;;;;;;;;;;25.80;87.10;;;;;;6275866;22;19907;-71
2023/01/28 11:06:56;;;;;;;;;;;25.80;87.30;;;;;;6303407;22;20234;-71
2023/01/28 11:09:27;;;;;;;;;;;25.80;87.20;;;;;;6303185;22;19903;-71
2023/01/28 11:11:54;;;;;;;;;;;25.80;87.30;;;;;;6299997;22;19919;-71
2023/01/28 11:14:21;;;;;;;;;;;25.80;87.60;;;;;;6302937;22;19945;-71
2023/01/28 11:16:48;;;;;;;;;;;25.80;87.60;;;;;;6302974;22;19907;-73
2023/01/28 11:19:15;;;;;;;;;;;25.80;87.60;;;;;;6303620;22;19907;-73
2023/01/28 11:21:41;;;;;;;;;;;25.80;87.70;;;;;;6276050;22;19954;-71
2023/01/28 11:24:15;;;;;;;;;;;25.80;87.70;;;;;;6275457;22;19903;-71
2023/01/28 11:26:46;;;;;;;;;;;25.70;87.60;;;;;;6275857;22;19903;-71
2023/01/28 11:29:39;;;;;;;;;;;25.80;87.70;;;;;;6276025;22;19998;-70
2023/01/28 11:32:06;;;;;;;;;;;25.80;87.70;;;;;;6296367;22;19952;-70
2023/01/28 11:34:33;;;;;;;;;;;25.80;87.70;;;;;;6274814;22;19907;-72
2023/01/28 11:37:14;;;;;;;;;;;25.80;87.70;;;;;;6302716;22;20322;-70
2023/01/28 11:39:41;;;;;;;;;;;25.80;87.80;;;;;;6302405;22;19907;-71
2023/01/28 11:42:18;;;;;;;;;;;25.80;87.70;;;;;;6302470;22;20322;-72
2023/01/28 11:44:45;;;;;;;;;;;25.80;87.70;;;;;;6275051;22;20345;-71
2023/01/28 11:47:31;;;;;;;;;;;25.80;87.80;;;;;;6275092;22;20320;-71
2023/01/28 11:50:04;;;;;;;;;;;25.80;87.90;;;;;;6275683;22;19937;-71
2023/01/28 11:52:31;;;;;;;;;;;25.70;87.80;;;;;;6276171;22;20013;-71
2023/01/28 11:55:09;;;;;;;;;;;25.70;88.00;;;;;;6302871;22;19911;-73
2023/01/28 11:57:36;;;;;;;;;;;25.70;88.00;;;;;;6301884;22;19910;-72
2023/01/28 12:00:22;;;;;;;;;;;25.80;87.90;;;;;;6303136;22;19989;-72
2023/01/28 12:03:02;;;;;;;;;;;25.80;87.90;;;;;;6302099;22;19997;-71
2023/01/28 12:05:35;;;;;;;;;;;25.80;87.90;;;;;;6275745;22;19998;-71
2023/01/28 12:08:19;;;;;;;;;;;25.70;88.00;;;;;;6302814;22;19941;-76
2023/01/28 12:11:04;;;;;;;;;;;25.70;88.10;;;;;;6305200;22;19910;-70
2023/01/28 12:13:59;;;;;;;;;;;25.70;88.00;;;;;;6305353;22;19931;-71
2023/01/28 12:16:44;;;;;;;;;;;25.70;88.20;;;;;;6170490;22;19909;-70
2023/01/28 12:19:15;;;;;;;;;;;25.70;88.40;;;;;;6306536;22;19926;-70
2023/01/28 12:21:44;;;;;;;;;;;25.60;88.30;;;;;;6305650;22;19911;-71
2023/01/28 12:24:20;;;;;;;;;;;25.60;88.20;;;;;;6307384;22;19910;-69
2023/01/28 12:27:02;;;;;;;;;;;25.60;88.30;;;;;;6307305;22;19910;-71
2023/01/28 12:29:40;;;;;;;;;;;25.70;88.40;;;;;;6307181;22;19947;-72
2023/01/28 12:32:06;;;;;;;;;;;25.70;88.20;;;;;;6279884;22;20234;-71
2023/01/28 12:34:55;;;;;;;;;;;25.60;88.40;;;;;;6307819;22;19903;-72
2023/01/28 12:37:21;;;;;;;;;;;25.60;88.40;;;;;;6280130;22;19984;-71
2023/01/28 12:39:54;;;;;;;;;;;25.70;88.40;;;;;;6307305;22;19910;-71
2023/01/28 12:42:21;;;;;;;;;;;25.70;88.30;;;;;;6308425;22;19921;-71
2023/01/28 12:44:55;;;;;;;;;;;25.60;88.30;;;;;;6307216;22;19941;-71
2023/01/28 12:47:23;;;;;;;;;;;25.60;88.30;;;;;;6279813;22;19914;-71
2023/01/28 12:49:57;;;;;;;;;;;25.60;88.30;;;;;;6307697;22;19903;-71
2023/01/28 12:52:25;;;;;;;;;;;25.60;88.50;;;;;;6279964;22;19903;-71
2023/01/28 12:55:04;;;;;;;;;;;25.50;88.60;;;;;;6306897;22;20294;-70
2023/01/28 12:57:32;;;;;;;;;;;25.50;88.60;;;;;;6280503;22;19907;-70
2023/01/28 13:00:16;;;;;;;;;;;25.50;88.70;;;;;;6307059;22;20343;-73
2023/01/28 13:02:45;;;;;;;;;;;25.50;88.50;;;;;;6306992;22;20245;-71
2023/01/28 13:05:15;;;;;;;;;;;25.60;88.50;;;;;;6307587;22;20241;-71
2023/01/28 13:07:55;;;;;;;;;;;25.50;88.50;;;;;;6279969;22;20286;-71
2023/01/28 13:10:28;;;;;;;;;;;25.50;88.50;;;;;;6279617;22;19907;-71
2023/01/28 13:12:55;;;;;;;;;;;25.50;88.60;;;;;;6307414;22;19918;-71
2023/01/28 13:15:22;;;;;;;;;;;25.50;88.50;;;;;;6280210;22;19903;-71
2023/01/28 13:17:55;;;;;;;;;;;25.60;88.40;;;;;;6307734;22;20225;-71
2023/01/28 13:20:31;;;;;;;;;;;25.50;88.50;;;;;;6307090;22;20383;-70
2023/01/28 13:23:01;;;;;;;;;;;25.50;88.50;;;;;;6279890;22;20286;-71
2023/01/28 13:25:28;;;;;;;;;;;25.50;88.50;;;;;;6280476;22;20313;-71
2023/01/28 13:27:58;;;;;;;;;;;25.50;88.50;;;;;;6306817;22;19909;-71
2023/01/28 13:30:25;;;;;;;;;;;25.60;88.50;;;;;;6306293;22;19981;-71
2023/01/28 13:32:58;;;;;;;;;;;25.50;88.50;;;;;;6307257;22;19914;-71
2023/01/28 13:35:43;;;;;;;;;;;25.50;88.60;;;;;;6306656;22;19990;-71
2023/01/28 13:38:15;;;;;;;;;;;25.50;88.60;;;;;;6279387;22;19918;-71
2023/01/28 13:40:41;;;;;;;;;;;25.50;88.80;;;;;;6280413;22;19903;-71
2023/01/28 13:43:26;;;;;;;;;;;25.50;88.80;;;;;;6280001;22;19910;-71
2023/01/28 13:45:57;;;;;;;;;;;25.50;88.70;;;;;;6306533;22;19907;-71
2023/01/28 13:48:24;;;;;;;;;;;25.50;88.90;;;;;;6307301;22;19930;-71
2023/01/28 13:50:52;;;;;;;;;;;25.40;88.70;;;;;;6306489;22;19934;-71
2023/01/28 13:53:28;;;;;;;;;;;25.40;88.80;;;;;;6279851;22;19938;-71
2023/01/28 13:55:55;;;;;;;;;;;25.50;88.80;;;;;;6307004;22;19910;-71
2023/01/28 13:58:37;;;;;;;;;;;25.50;88.80;;;;;;6279383;22;19903;-71
2023/01/28 14:01:12;;;;;;;;;;;25.50;88.70;;;;;;6306490;22;19906;-71
2023/01/28 14:03:41;;;;;;;;;;;25.50;88.80;;;;;;6280275;22;20207;-72
2023/01/28 14:06:08;;;;;;;;;;;25.40;88.80;;;;;;6306354;22;19913;-71
2023/01/28 14:08:38;;;;;;;;;;;25.40;88.70;;;;;;6306765;22;20396;-71
2023/01/28 14:11:23;;;;;;;;;;;25.40;88.70;;;;;;6279794;22;19911;-71
2023/01/28 14:14:01;;;;;;;;;;;25.30;88.80;;;;;;6306612;22;19903;-74
2023/01/28 14:16:37;;;;;;;;;;;25.40;89.00;;;;;;6306131;22;19907;-73
2023/01/28 14:19:03;;;;;;;;;;;25.30;89.00;;;;;;6306923;22;20423;-73
2023/01/28 14:21:31;;;;;;;;;;;25.30;89.00;;;;;;6306359;22;19925;-72
2023/01/28 14:23:58;;;;;;;;;;;25.30;89.20;;;;;;6306497;22;19957;-72
2023/01/28 14:26:34;;;;;;;;;;;25.30;89.30;;;;;;6280164;22;19903;-72
2023/01/28 14:29:03;;;;;;;;;;;25.30;89.30;;;;;;6278837;22;19993;-72
2023/01/28 14:31:33;;;;;;;;;;;25.20;89.40;;;;;;6307389;22;19907;-72
2023/01/28 14:34:06;;;;;;;;;;;25.20;89.40;;;;;;6306241;22;19915;-72
2023/01/28 14:36:35;;;;;;;;;;;25.20;89.40;;;;;;6306438;22;19910;-73
2023/01/28 14:39:03;;;;;;;;;;;25.30;89.30;;;;;;6278827;22;19947;-71
2023/01/28 14:41:29;;;;;;;;;;;25.30;89.30;;;;;;6278748;22;19992;-71
2023/01/28 14:43:56;;;;;;;;;;;25.20;89.40;;;;;;6305078;22;19907;-71
2023/01/28 14:46:30;;;;;;;;;;;25.20;89.40;;;;;;6306430;22;19903;-71
2023/01/28 14:49:03;;;;;;;;;;;25.20;89.40;;;;;;6278746;22;19903;-71
2023/01/28 14:51:39;;;;;;;;;;;25.20;89.30;;;;;;6306144;22;19903;-71
2023/01/28 14:54:22;;;;;;;;;;;25.20;89.30;;;;;;6306437;22;19954;-71
2023/01/28 14:56:51;;;;;;;;;;;25.20;89.40;;;;;;6279115;22;19986;-71
2023/01/28 14:59:18;;;;;;;;;;;25.30;89.30;;;;;;6306712;22;20357;-71
2023/01/28 15:01:45;;;;;;;;;;;25.30;89.20;;;;;;6306643;22;19915;-71
2023/01/28 15:04:24;;;;;;;;;;;25.30;89.10;;;;;;6305973;22;19949;-71
2023/01/28 15:06:51;;;;;;;;;;;25.20;89.00;;;;;;6306469;22;20337;-71
2023/01/28 15:09:18;;;;;;;;;;;25.20;89.10;;;;;;6306437;22;20526;-71
2023/01/28 15:11:45;;;;;;;;;;;25.30;89.10;;;;;;6306122;22;19914;-71
2023/01/28 15:14:24;;;;;;;;;;;25.30;89.00;;;;;;6278687;22;19903;-71
2023/01/28 15:16:51;;;;;;;;;;;25.30;89.00;;;;;;6279091;22;19903;-71
2023/01/28 15:19:17;;;;;;;;;;;25.30;88.90;;;;;;6305372;22;19910;-71
2023/01/28 15:21:44;;;;;;;;;;;25.30;88.90;;;;;;6305850;22;20334;-71
2023/01/28 15:24:11;;;;;;;;;;;25.30;88.80;;;;;;6306560;22;20341;-71
2023/01/28 15:26:38;;;;;;;;;;;25.20;88.80;;;;;;6279084;22;20353;-71
2023/01/28 15:29:05;;;;;;;;;;;25.20;89.00;;;;;;6279052;22;19977;-71
2023/01/28 15:31:32;;;;;;;;;;;25.20;89.00;;;;;;6305877;22;20276;-72
2023/01/28 15:33:59;;;;;;;;;;;25.20;89.00;;;;;;6305706;22;19998;-72
2023/01/28 15:36:26;;;;;;;;;;;25.20;89.00;;;;;;6306871;22;19931;-72
2023/01/28 15:38:53;;;;;;;;;;;25.20;89.00;;;;;;6278678;22;19903;-72
2023/01/28 15:41:20;;;;;;;;;;;25.20;89.00;;;;;;6305931;22;19911;-71
2023/01/28 15:43:47;;;;;;;;;;;25.20;89.00;;;;;;6279248;22;19903;-72
2023/01/28 15:46:14;;;;;;;;;;;25.20;88.90;;;;;;6305834;22;19961;-71
2023/01/28 15:48:41;;;;;;;;;;;25.20;89.00;;;;;;6306194;22;19926;-72
2023/01/28 15:51:08;;;;;;;;;;;25.20;89.00;;;;;;6306007;22;19914;-71
2023/01/28 15:53:45;;;;;;;;;;;25.20;89.00;;;;;;6278146;22;19965;-71
2023/01/28 15:56:12;;;;;;;;;;;25.20;88.90;;;;;;6306365;22;20291;-71
2023/01/28 15:58:42;;;;;;;;;;;25.20;89.00;;;;;;6307797;22;19903;-70
2023/01/28 16:01:08;;;;;;;;;;;25.20;89.00;;;;;;6281304;22;19915;-71
2023/01/28 16:03:38;;;;;;;;;;;25.20;89.00;;;;;;6308062;22;19903;-71
2023/01/28 16:06:09;;;;;;;;;;;25.20;89.20;;;;;;6307603;22;19907;-74
2023/01/28 16:08:46;;;;;;;;;;;25.20;89.10;;;;;;6307549;22;19903;-72
2023/01/28 16:11:13;;;;;;;;;;;25.20;89.20;;;;;;6307838;22;19907;-71
2023/01/28 16:13:43;;;;;;;;;;;25.20;89.30;;;;;;6280632;22;19926;-71
2023/01/28 16:16:09;;;;;;;;;;;25.20;89.30;;;;;;6280793;22;20353;-72
2023/01/28 16:18:46;;;;;;;;;;;25.20;89.30;;;;;;6308238;22;19906;-72
2023/01/28 16:21:19;;;;;;;;;;;25.20;89.30;;;;;;6281714;22;19994;-72
2023/01/28 16:24:02;;;;;;;;;;;25.20;89.30;;;;;;6308217;22;20250;-72
2023/01/28 16:26:30;;;;;;;;;;;25.20;89.30;;;;;;6308059;22;19914;-72
2023/01/28 16:28:58;;;;;;;;;;;25.20;89.30;;;;;;6308440;22;19903;-72
2023/01/28 16:31:24;;;;;;;;;;;25.20;89.30;;;;;;6307877;22;19909;-72
2023/01/28 16:33:51;;;;;;;;;;;25.20;89.30;;;;;;6307533;22;19917;-72
2023/01/28 16:36:20;;;;;;;;;;;25.20;89.40;;;;;;6308198;22;19903;-74
2023/01/28 16:38:47;;;;;;;;;;;25.20;89.50;;;;;;6307287;22;20002;-72
2023/01/28 16:41:15;;;;;;;;;;;25.10;89.50;;;;;;6308015;22;19911;-72
2023/01/28 16:43:42;;;;;;;;;;;25.10;89.60;;;;;;6307111;22;20285;-72
2023/01/28 16:46:11;;;;;;;;;;;25.10;89.70;;;;;;6307271;22;20226;-72
2023/01/28 16:48:37;;;;;;;;;;;25.10;90.00;;;;;;6308272;22;19922;-72
2023/01/28 16:51:10;;;;;;;;;;;25.10;89.90;;;;;;6307740;22;20314;-72
2023/01/28 16:53:38;;;;;;;;;;;25.10;90.10;;;;;;6279871;22;19982;-72
2023/01/28 16:56:04;;;;;;;;;;;25.10;90.10;;;;;;6307698;22;20317;-72
2023/01/28 16:58:31;;;;;;;;;;;25.10;90.20;;;;;;6307326;22;19903;-72
2023/01/28 17:00:58;;;;;;;;;;;25.10;90.10;;;;;;6307471;22;19911;-72
2023/01/28 17:03:25;;;;;;;;;;;25.10;90.20;;;;;;6307708;22;20330;-72
2023/01/28 17:05:52;;;;;;;;;;;25.10;90.30;;;;;;6307047;22;19957;-72
2023/01/28 17:08:19;;;;;;;;;;;25.10;90.50;;;;;;6279838;22;20005;-73
2023/01/28 17:10:50;;;;;;;;;;;25.00;90.40;;;;;;6307754;22;19910;-72
2023/01/28 17:13:17;;;;;;;;;;;25.00;90.40;;;;;;6307478;22;20341;-73
2023/01/28 17:15:44;;;;;;;;;;;25.00;90.50;;;;;;6307347;22;20343;-72
2023/01/28 17:18:11;;;;;;;;;;;25.10;90.50;;;;;;6307460;22;19903;-72
2023/01/28 17:20:41;;;;;;;;;;;25.10;90.40;;;;;;6279823;22;19907;-72
2023/01/28 17:23:08;;;;;;;;;;;25.10;90.50;;;;;;6307530;22;19929;-72
2023/01/28 17:25:38;;;;;;;;;;;25.10;90.40;;;;;;6279912;22;19902;-72
2023/01/28 17:28:05;;;;;;;;;;;25.00;90.40;;;;;;6307180;22;19914;-72
2023/01/28 17:30:32;;;;;;;;;;;25.00;90.50;;;;;;6307577;22;20237;-73
2023/01/28 17:32:58;;;;;;;;;;;25.00;90.50;;;;;;6306877;22;19903;-73
2023/01/28 17:35:25;;;;;;;;;;;25.00;90.50;;;;;;6306608;22;19926;-72
2023/01/28 17:37:52;;;;;;;;;;;25.00;90.70;;;;;;6307659;22;20230;-72
2023/01/28 17:40:19;;;;;;;;;;;25.00;90.50;;;;;;6306638;22;19914;-72
2023/01/28 17:42:46;;;;;;;;;;;25.00;90.50;;;;;;6307055;22;19915;-72
2023/01/28 17:45:12;;;;;;;;;;;25.00;90.60;;;;;;6307475;22;19903;-72
2023/01/28 17:47:39;;;;;;;;;;;24.90;90.60;;;;;;6306837;22;20340;-72
2023/01/28 17:50:06;;;;;;;;;;;24.90;90.60;;;;;;6307614;22;19907;-72
2023/01/28 17:52:33;;;;;;;;;;;25.00;90.50;;;;;;6306934;22;19938;-72
2023/01/28 17:54:59;;;;;;;;;;;25.00;90.60;;;;;;6306980;22;19903;-72
2023/01/28 17:57:26;;;;;;;;;;;25.00;90.60;;;;;;6307411;22;19903;-72
2023/01/28 17:59:53;;;;;;;;;;;25.00;90.60;;;;;;6307062;22;19911;-72
2023/01/28 18:02:19;;;;;;;;;;;25.00;90.50;;;;;;6307062;22;19950;-72
2023/01/28 18:04:46;;;;;;;;;;;25.00;90.40;;;;;;6306711;22;19903;-72
2023/01/28 18:07:12;;;;;;;;;;;25.00;90.50;;;;;;6306670;22;19953;-72
2023/01/28 18:09:40;;;;;;;;;;;25.00;90.40;;;;;;6307033;22;19907;-71
2023/01/28 18:12:07;;;;;;;;;;;25.00;90.50;;;;;;6306351;22;19984;-71
2023/01/28 18:14:34;;;;;;;;;;;25.00;90.40;;;;;;6306630;22;19910;-71
2023/01/28 18:17:00;;;;;;;;;;;25.10;90.40;;;;;;6307191;22;19903;-71
2023/01/28 18:19:27;;;;;;;;;;;25.10;90.40;;;;;;6306099;22;19907;-71
2023/01/28 18:21:54;;;;;;;;;;;25.00;90.40;;;;;;6306491;22;19911;-71
2023/01/28 18:24:22;;;;;;;;;;;25.00;90.40;;;;;;6307222;22;20318;-72
2023/01/28 18:26:50;;;;;;;;;;;25.10;90.40;;;;;;6306402;22;19910;-72
2023/01/28 18:29:19;;;;;;;;;;;25.10;90.30;;;;;;6306811;22;19956;-73
2023/01/28 18:31:46;;;;;;;;;;;25.10;90.30;;;;;;6307073;22;19979;-73
2023/01/28 18:34:13;;;;;;;;;;;25.10;90.30;;;;;;6306249;22;19957;-72
2023/01/28 18:36:40;;;;;;;;;;;25.10;90.40;;;;;;6306537;22;20234;-71
2023/01/28 18:39:09;;;;;;;;;;;25.10;90.40;;;;;;6306314;22;19940;-70
2023/01/28 18:41:36;;;;;;;;;;;25.10;90.30;;;;;;6306602;22;19911;-71
2023/01/28 18:44:03;;;;;;;;;;;25.10;90.20;;;;;;6304679;22;19961;-70
2023/01/28 18:46:29;;;;;;;;;;;25.10;90.30;;;;;;6300297;22;19929;-71
2023/01/28 18:48:56;;;;;;;;;;;25.10;90.30;;;;;;6302130;22;19909;-71
2023/01/28 18:51:23;;;;;;;;;;;25.10;90.30;;;;;;6303354;22;20331;-70
2023/01/28 18:53:49;;;;;;;;;;;25.00;90.30;;;;;;6302855;22;20342;-72
2023/01/28 18:56:16;;;;;;;;;;;25.10;90.40;;;;;;6302849;22;20317;-72
2023/01/28 18:58:43;;;;;;;;;;;25.10;90.40;;;;;;6303829;22;20269;-71
2023/01/28 19:01:10;;;;;;;;;;;25.10;90.30;;;;;;6275623;22;19985;-71
2023/01/28 19:03:37;;;;;;;;;;;25.10;90.30;;;;;;6303483;22;19930;-70
2023/01/28 19:06:07;;;;;;;;;;;25.10;90.40;;;;;;6302661;22;19902;-70
2023/01/28 19:08:34;;;;;;;;;;;25.10;90.20;;;;;;6302995;22;19917;-70
2023/01/28 19:11:00;;;;;;;;;;;25.10;90.20;;;;;;6303307;22;19907;-70
2023/01/28 19:13:27;;;;;;;;;;;25.10;90.30;;;;;;6302971;22;19919;-71
2023/01/28 19:15:55;;;;;;;;;;;25.10;90.20;;;;;;6303057;22;19903;-70
2023/01/28 19:18:21;;;;;;;;;;;25.10;90.20;;;;;;6303636;22;19907;-71
2023/01/28 19:20:48;;;;;;;;;;;25.10;90.10;;;;;;6302507;22;19903;-71
2023/01/28 19:23:15;;;;;;;;;;;25.00;89.90;;;;;;6303428;22;20346;-70
2023/01/28 19:25:41;;;;;;;;;;;25.10;89.90;;;;;;6306272;22;19903;-71
2023/01/28 19:28:08;;;;;;;;;;;25.10;89.90;;;;;;6305519;22;19907;-71
2023/01/28 19:30:35;;;;;;;;;;;25.10;89.80;;;;;;6306242;22;19953;-71
2023/01/28 19:33:02;;;;;;;;;;;25.10;89.80;;;;;;6306002;22;19910;-71
2023/01/28 19:35:29;;;;;;;;;;;25.10;89.80;;;;;;6305879;22;19903;-71
2023/01/28 19:37:55;;;;;;;;;;;25.00;89.70;;;;;;6306483;22;19903;-70
2023/01/28 19:40:22;;;;;;;;;;;25.00;89.70;;;;;;6306670;22;20541;-70
2023/01/28 19:42:51;;;;;;;;;;;25.10;89.80;;;;;;6305974;22;20371;-70
2023/01/28 19:45:17;;;;;;;;;;;25.10;89.80;;;;;;6305775;22;19910;-71
2023/01/28 19:47:44;;;;;;;;;;;25.10;89.80;;;;;;6305794;22;19914;-70
2023/01/28 19:50:11;;;;;;;;;;;25.10;89.90;;;;;;6305643;22;19934;-70
2023/01/28 19:52:38;;;;;;;;;;;25.10;89.90;;;;;;6306167;22;19903;-70
2023/01/28 19:55:06;;;;;;;;;;;25.10;89.90;;;;;;6305506;22;19907;-70
2023/01/28 19:57:33;;;;;;;;;;;25.10;89.90;;;;;;6305757;22;19903;-70
2023/01/28 19:59:59;;;;;;;;;;;25.10;90.00;;;;;;6306323;22;19911;-71
2023/01/28 20:02:26;;;;;;;;;;;25.10;89.90;;;;;;6304580;22;19911;-71
2023/01/28 20:04:53;;;;;;;;;;;25.10;89.90;;;;;;6305953;22;20341;-71
2023/01/28 20:07:20;;;;;;;;;;;25.10;89.90;;;;;;6306528;22;19956;-71
2023/01/28 20:09:46;;;;;;;;;;;25.20;89.90;;;;;;6305708;22;19903;-71
2023/01/28 20:12:13;;;;;;;;;;;25.10;89.90;;;;;;6305736;22;19925;-71
2023/01/28 20:14:40;;;;;;;;;;;25.10;89.90;;;;;;6303738;22;19906;-72
2023/01/28 20:17:07;;;;;;;;;;;25.10;90.00;;;;;;6278481;22;19982;-72
2023/01/28 20:19:33;;;;;;;;;;;25.10;90.00;;;;;;6305915;22;19903;-72
2023/01/28 20:22:00;;;;;;;;;;;25.10;90.00;;;;;;6305547;22;20007;-72
2023/01/28 20:24:27;;;;;;;;;;;25.10;90.00;;;;;;6304937;22;19907;-72
2023/01/28 20:26:53;;;;;;;;;;;25.20;90.00;;;;;;6306862;22;19915;-72
2023/01/28 20:29:21;;;;;;;;;;;25.20;90.00;;;;;;6305120;22;19903;-72
2023/01/28 20:31:48;;;;;;;;;;;25.20;90.00;;;;;;6305257;22;19910;-72
2023/01/28 20:34:15;;;;;;;;;;;25.20;90.00;;;;;;6306003;22;19990;-72
2023/01/28 20:36:42;;;;;;;;;;;25.20;90.00;;;;;;6305508;22;19903;-72
2023/01/28 20:39:09;;;;;;;;;;;25.20;90.00;;;;;;6305907;22;19903;-72
2023/01/28 20:41:35;;;;;;;;;;;25.20;90.00;;;;;;6305305;22;19957;-72
2023/01/28 20:44:02;;;;;;;;;;;25.30;89.90;;;;;;6306837;22;19925;-72
2023/01/28 20:46:29;;;;;;;;;;;25.30;89.90;;;;;;6307860;22;19925;-71
2023/01/28 20:48:57;;;;;;;;;;;25.30;90.20;;;;;;6307486;22;19989;-70
2023/01/28 20:51:24;;;;;;;;;;;25.30;90.20;;;;;;6307843;22;19911;-71
2023/01/28 20:53:51;;;;;;;;;;;25.30;90.10;;;;;;6307327;22;19907;-71
2023/01/28 20:56:18;;;;;;;;;;;25.30;90.30;;;;;;6279709;22;20259;-70
2023/01/28 20:58:45;;;;;;;;;;;25.30;90.20;;;;;;6307395;22;19903;-71
2023/01/28 21:01:18;;;;;;;;;;;25.30;90.20;;;;;;6307712;22;19907;-71
2023/01/28 21:03:45;;;;;;;;;;;25.40;90.40;;;;;;6279342;22;20373;-72
2023/01/28 21:06:11;;;;;;;;;;;25.40;90.40;;;;;;6307424;22;19990;-71
2023/01/28 21:08:38;;;;;;;;;;;25.30;90.30;;;;;;6306505;22;20230;-71
2023/01/28 21:11:05;;;;;;;;;;;25.40;90.20;;;;;;6306715;22;19914;-71
2023/01/28 21:13:32;;;;;;;;;;;25.30;90.20;;;;;;6303728;22;19914;-71
2023/01/28 21:15:58;;;;;;;;;;;25.30;90.30;;;;;;6304496;22;19907;-69
2023/01/28 21:18:25;;;;;;;;;;;25.30;90.40;;;;;;6303944;22;19907;-72
2023/01/28 21:20:55;;;;;;;;;;;25.30;90.40;;;;;;6304217;22;19914;-72
2023/01/28 21:23:22;;;;;;;;;;;25.30;90.30;;;;;;6303433;22;19913;-71
2023/01/28 21:25:51;;;;;;;;;;;25.30;90.20;;;;;;6304204;22;20469;-72
2023/01/28 21:28:18;;;;;;;;;;;25.30;90.10;;;;;;6304587;22;19903;-71
2023/01/28 21:30:45;;;;;;;;;;;25.30;90.10;;;;;;6303722;22;19907;-71
2023/01/28 21:33:12;;;;;;;;;;;25.30;90.20;;;;;;6304283;22;20246;-72
2023/01/28 21:35:39;;;;;;;;;;;25.30;90.10;;;;;;6300873;22;19914;-71
2023/01/28 21:38:06;;;;;;;;;;;25.30;90.10;;;;;;6303491;22;19906;-71